createdAt,value
2023-04-30T00:00:36.250Z,11.67
2023-04-30T00:03:04.984Z,12.67
2023-04-30T00:05:32.888Z,16.30
2023-04-30T00:08:00.637Z,15.33
2023-04-30T00:10:28.767Z,11.33
2023-04-30T00:12:57.098Z,11.60
2023-04-30T00:15:26.361Z,13.23
2023-04-30T00:17:54.240Z,14.43
2023-04-30T00:20:22.248Z,11.23
2023-04-30T00:22:50.045Z,11.70
2023-04-30T00:25:17.796Z,11.97
2023-04-30T00:27:45.992Z,11.77
2023-04-30T00:30:14.310Z,12.70
2023-04-30T00:32:45.819Z,12.33
2023-04-30T00:35:13.709Z,11.37
2023-04-30T00:37:42.280Z,13.77
2023-04-30T00:40:11.186Z,9.03
2023-04-30T00:42:38.972Z,13.87
2023-04-30T00:45:08.214Z,11.43
2023-04-30T00:47:37.069Z,10.23
2023-04-30T00:50:07.614Z,11.23
2023-04-30T00:52:35.488Z,12.53
2023-04-30T00:55:03.350Z,11.00
2023-04-30T00:57:31.653Z,10.77
2023-04-30T01:00:00.359Z,12.27
2023-04-30T01:02:28.620Z,10.13
2023-04-30T01:04:57.546Z,10.77
2023-04-30T01:07:28.329Z,11.03
2023-04-30T01:09:56.497Z,12.20
2023-04-30T01:12:39.018Z,12.37
2023-04-30T01:15:16.033Z,13.47
2023-04-30T01:17:49.436Z,11.57
2023-04-30T01:20:17.350Z,10.73
2023-04-30T01:22:56.568Z,13.63
2023-04-30T01:25:45.337Z,13.43
2023-04-30T01:28:19.122Z,9.93
2023-04-30T01:30:48.135Z,12.70
2023-04-30T01:33:16.181Z,13.47
2023-04-30T01:36:11.142Z,11.27
2023-04-30T01:38:57.595Z,12.40
2023-04-30T01:41:34.317Z,13.43
2023-04-30T01:44:14.841Z,10.47
2023-04-30T01:46:47.612Z,14.00
2023-04-30T01:49:26.480Z,12.23
2023-04-30T01:52:01.558Z,13.67
2023-04-30T01:54:40.011Z,15.40
2023-04-30T01:57:08.880Z,12.90
2023-04-30T01:59:41.042Z,12.20
2023-04-30T02:02:08.773Z,12.40
2023-04-30T02:04:36.807Z,14.63
2023-04-30T02:07:05.195Z,12.07
2023-04-30T02:09:33.158Z,13.80
2023-04-30T02:12:01.823Z,14.13
2023-04-30T02:14:31.793Z,15.47
2023-04-30T02:17:01.003Z,13.20
2023-04-30T02:19:28.775Z,12.43
2023-04-30T02:21:56.562Z,13.07
2023-04-30T02:24:24.291Z,12.30
2023-04-30T02:26:52.194Z,14.13
2023-04-30T02:29:20.040Z,13.23
2023-04-30T02:31:47.877Z,11.40
2023-04-30T02:34:17.046Z,14.50
2023-04-30T02:36:44.790Z,12.03
2023-04-30T02:39:12.612Z,12.07
2023-04-30T02:41:40.428Z,13.33
2023-04-30T02:44:08.207Z,13.07
2023-04-30T02:46:35.959Z,12.80
2023-04-30T02:49:03.678Z,12.20
2023-04-30T02:51:32.771Z,13.57
2023-04-30T02:54:01.199Z,15.17
2023-04-30T02:56:28.993Z,14.13
2023-04-30T02:58:56.880Z,13.20
2023-04-30T03:01:24.869Z,13.23
2023-04-30T03:03:52.656Z,13.33
2023-04-30T03:06:20.501Z,13.73
2023-04-30T03:08:49.584Z,12.23
2023-04-30T03:11:17.275Z,18.30
2023-04-30T03:13:45.429Z,17.13
2023-04-30T03:16:13.451Z,15.83
2023-04-30T03:18:41.219Z,15.37
2023-04-30T03:21:09.662Z,16.90
2023-04-30T03:23:38.236Z,15.57
2023-04-30T03:26:08.431Z,13.97
2023-04-30T03:28:36.213Z,16.17
2023-04-30T03:31:05.408Z,15.90
2023-04-30T03:33:33.627Z,16.27
2023-04-30T03:36:01.410Z,13.33
2023-04-30T03:38:29.138Z,13.87
2023-04-30T03:40:56.830Z,15.97
2023-04-30T03:43:25.906Z,15.50
2023-04-30T03:45:54.344Z,13.60
2023-04-30T03:48:22.367Z,14.20
2023-04-30T03:50:50.082Z,14.67
2023-04-30T03:53:17.736Z,17.00
2023-04-30T03:55:46.370Z,13.37
2023-04-30T03:58:14.226Z,13.80
2023-04-30T04:00:45.706Z,13.73
2023-04-30T04:03:13.813Z,14.03
2023-04-30T04:05:42.718Z,15.97
2023-04-30T04:08:11.237Z,14.03
2023-04-30T04:10:39.788Z,14.63
2023-04-30T04:13:07.830Z,13.93
2023-04-30T04:15:36.179Z,16.53
2023-04-30T04:18:07.006Z,15.50
2023-04-30T04:20:35.182Z,12.73
2023-04-30T04:23:03.159Z,13.23
2023-04-30T04:25:31.050Z,15.93
2023-04-30T04:27:59.263Z,13.63
2023-04-30T04:30:27.277Z,13.17
2023-04-30T04:32:55.135Z,13.67
2023-04-30T04:35:24.181Z,15.70
2023-04-30T04:37:51.844Z,16.20
2023-04-30T04:40:19.832Z,16.60
2023-04-30T04:42:51.251Z,14.00
2023-04-30T04:45:19.380Z,13.33
2023-04-30T04:47:48.242Z,13.10
2023-04-30T04:50:16.586Z,14.80
2023-04-30T04:52:45.936Z,14.67
2023-04-30T04:55:15.609Z,15.40
2023-04-30T04:57:43.366Z,15.43
2023-04-30T05:00:12.759Z,12.97
2023-04-30T05:02:40.560Z,14.37
2023-04-30T05:05:09.074Z,12.33
2023-04-30T05:07:36.745Z,14.13
2023-04-30T05:10:07.277Z,13.10
2023-04-30T05:12:35.122Z,13.30
2023-04-30T05:15:04.532Z,12.93
2023-04-30T05:17:32.291Z,17.70
2023-04-30T05:20:00.021Z,14.87
2023-04-30T05:22:28.230Z,12.27
2023-04-30T05:24:55.960Z,12.10
2023-04-30T05:27:25.409Z,14.10
2023-04-30T05:29:53.324Z,15.17
2023-04-30T05:32:21.365Z,13.77
2023-04-30T05:34:49.168Z,14.93
2023-04-30T05:37:17.635Z,14.50
2023-04-30T05:39:45.564Z,14.27
2023-04-30T05:42:13.282Z,13.47
2023-04-30T05:44:42.864Z,13.97
2023-04-30T05:47:10.524Z,14.87
2023-04-30T05:49:38.352Z,13.87
2023-04-30T05:52:06.595Z,14.07
2023-04-30T05:54:34.860Z,13.10
2023-04-30T05:57:02.654Z,13.43
2023-04-30T05:59:30.317Z,14.70
2023-04-30T06:01:59.707Z,15.73
2023-04-30T06:04:27.568Z,14.03
2023-04-30T06:06:55.616Z,14.47
2023-04-30T06:09:23.575Z,13.73
2023-04-30T06:11:52.197Z,13.70
2023-04-30T06:14:22.692Z,13.07
2023-04-30T06:16:50.804Z,14.87
2023-04-30T06:19:20.673Z,12.93
2023-04-30T06:21:48.389Z,14.80
2023-04-30T06:24:16.356Z,13.13
2023-04-30T06:26:44.300Z,14.83
2023-04-30T06:29:11.993Z,13.93
2023-04-30T06:31:39.752Z,13.40
2023-04-30T06:34:07.461Z,15.37
2023-04-30T06:36:36.905Z,13.43
2023-04-30T06:39:05.184Z,14.87
2023-04-30T06:41:33.111Z,15.53
2023-04-30T06:44:01.095Z,14.33
2023-04-30T06:46:28.874Z,15.27
2023-04-30T06:48:56.626Z,18.40
2023-04-30T06:51:24.329Z,15.67
2023-04-30T06:53:53.532Z,11.67
2023-04-30T06:56:21.948Z,12.10
2023-04-30T06:58:50.189Z,13.37
2023-04-30T07:01:18.325Z,11.83
2023-04-30T07:03:46.327Z,16.23
2023-04-30T07:06:14.643Z,14.07
2023-04-30T07:08:43.832Z,12.80
2023-04-30T07:11:13.680Z,13.30
2023-04-30T07:13:41.548Z,14.07
2023-04-30T07:16:10.630Z,11.90
2023-04-30T07:18:39.536Z,16.83
2023-04-30T07:21:08.232Z,15.03
2023-04-30T07:23:36.129Z,12.03
2023-04-30T07:26:04.040Z,12.00
2023-04-30T07:28:33.507Z,12.93
2023-04-30T07:31:02.172Z,13.40
2023-04-30T07:33:30.462Z,11.73
2023-04-30T07:35:58.956Z,14.20
2023-04-30T07:38:26.976Z,16.37
2023-04-30T07:40:54.762Z,11.33
2023-04-30T07:43:22.434Z,12.50
2023-04-30T07:45:53.509Z,11.10
2023-04-30T07:48:21.463Z,13.00
2023-04-30T07:50:51.476Z,11.70
2023-04-30T07:53:20.584Z,11.20
2023-04-30T07:55:48.344Z,12.63
2023-04-30T07:58:16.233Z,11.40
2023-04-30T08:00:44.167Z,12.43
2023-04-30T08:03:13.496Z,14.17
2023-04-30T08:05:41.635Z,10.97
2023-04-30T08:08:09.786Z,10.87
2023-04-30T08:10:37.722Z,11.83
2023-04-30T08:13:06.098Z,13.93
2023-04-30T08:15:34.892Z,9.83
2023-04-30T08:18:03.798Z,11.00
2023-04-30T08:20:33.530Z,11.83
2023-04-30T08:23:01.312Z,10.83
2023-04-30T08:25:29.107Z,10.50
2023-04-30T08:27:56.897Z,12.83
2023-04-30T08:30:24.887Z,11.83
2023-04-30T08:32:53.281Z,13.30
2023-04-30T08:35:22.600Z,9.53
2023-04-30T08:37:51.831Z,10.33
2023-04-30T08:40:19.841Z,10.03
2023-04-30T08:42:55.114Z,10.27
2023-04-30T08:45:23.198Z,11.50
2023-04-30T08:47:51.489Z,10.70
2023-04-30T08:50:20.737Z,10.40
2023-04-30T08:52:48.476Z,11.63
2023-04-30T08:55:17.624Z,12.17
2023-04-30T08:57:45.850Z,10.90
2023-04-30T09:00:15.320Z,13.40
2023-04-30T09:02:44.823Z,8.87
2023-04-30T09:05:14.699Z,12.97
2023-04-30T09:08:01.069Z,8.50
2023-04-30T09:10:35.491Z,7.47
2023-04-30T09:13:04.541Z,8.93
2023-04-30T09:15:33.807Z,9.13
2023-04-30T09:18:13.332Z,8.77
2023-04-30T09:20:56.241Z,10.50
2023-04-30T09:23:24.590Z,9.67
2023-04-30T09:25:53.950Z,7.80
2023-04-30T09:28:24.495Z,8.40
2023-04-30T09:30:53.304Z,6.13
2023-04-30T09:33:21.410Z,7.50
2023-04-30T09:35:49.626Z,5.70
2023-04-30T09:38:28.434Z,9.60
2023-04-30T09:40:59.878Z,7.47
2023-04-30T09:43:27.865Z,7.50
2023-04-30T09:45:55.875Z,8.10
2023-04-30T09:48:25.191Z,6.90
2023-04-30T09:50:55.221Z,6.53
2023-04-30T09:53:24.252Z,5.77
2023-04-30T09:55:52.780Z,5.70
2023-04-30T09:58:24.500Z,6.70
2023-04-30T10:00:55.288Z,6.20
2023-04-30T10:03:25.565Z,6.23
2023-04-30T10:05:55.873Z,8.83
2023-04-30T10:08:28.890Z,7.93
2023-04-30T10:11:04.663Z,6.73
2023-04-30T10:13:39.873Z,7.00
2023-04-30T10:16:13.472Z,7.83
2023-04-30T10:18:44.521Z,5.20
2023-04-30T10:21:14.970Z,5.60
2023-04-30T10:23:43.625Z,6.07
2023-04-30T10:26:12.545Z,6.10
2023-04-30T10:28:42.067Z,7.00
2023-04-30T10:31:11.503Z,7.57
2023-04-30T10:33:49.832Z,6.50
2023-04-30T10:36:25.724Z,6.63
2023-04-30T10:38:54.657Z,9.47
2023-04-30T10:41:22.456Z,4.70
2023-04-30T10:43:52.311Z,5.07
2023-04-30T10:46:23.709Z,4.23
2023-04-30T10:48:53.800Z,5.43
2023-04-30T10:51:22.676Z,3.83
2023-04-30T10:53:52.875Z,4.00
2023-04-30T10:56:34.721Z,4.63
2023-04-30T10:59:03.971Z,3.70
2023-04-30T11:01:32.640Z,5.20
2023-04-30T11:04:08.557Z,4.80
2023-04-30T11:06:51.007Z,4.63
2023-04-30T11:09:19.185Z,4.60
2023-04-30T11:11:47.552Z,4.53
2023-04-30T11:14:22.925Z,4.57
2023-04-30T11:16:51.326Z,6.67
2023-04-30T11:19:19.688Z,7.10
2023-04-30T11:22:23.010Z,7.30
2023-04-30T11:24:55.339Z,5.23
2023-04-30T11:27:25.222Z,4.73
2023-04-30T11:29:56.238Z,4.63
2023-04-30T11:32:26.031Z,5.03
2023-04-30T11:34:54.618Z,5.83
2023-04-30T11:37:30.824Z,6.60
2023-04-30T11:40:01.179Z,4.50
2023-04-30T11:42:30.162Z,5.10
2023-04-30T11:45:06.740Z,6.53
2023-04-30T11:47:42.917Z,6.90
2023-04-30T11:50:12.210Z,5.30
2023-04-30T11:52:40.508Z,5.40
2023-04-30T11:55:09.894Z,5.50
2023-04-30T11:57:41.995Z,3.27
2023-04-30T12:00:14.391Z,3.00
2023-04-30T12:02:43.632Z,3.10
2023-04-30T12:05:17.063Z,4.27
2023-04-30T12:07:49.692Z,2.77
2023-04-30T12:10:19.805Z,3.83
2023-04-30T12:12:51.230Z,3.00
2023-04-30T12:15:26.899Z,2.80
2023-04-30T12:17:56.340Z,2.70
2023-04-30T12:20:26.237Z,3.57
2023-04-30T12:22:54.209Z,4.57
2023-04-30T12:25:23.888Z,2.83
2023-04-30T12:27:53.372Z,3.17
2023-04-30T12:30:26.793Z,2.60
2023-04-30T12:32:58.622Z,2.50
2023-04-30T12:35:29.659Z,2.27
2023-04-30T12:38:03.876Z,3.00
2023-04-30T12:40:31.801Z,2.33
2023-04-30T12:43:03.665Z,4.03
2023-04-30T12:45:48.130Z,4.83
2023-04-30T12:48:17.172Z,2.57
2023-04-30T12:50:49.868Z,3.77
2023-04-30T12:53:17.737Z,3.47
2023-04-30T12:55:45.866Z,2.57
2023-04-30T12:58:16.857Z,3.37
2023-04-30T13:00:50.504Z,2.53
2023-04-30T13:03:20.991Z,2.20
2023-04-30T13:05:51.106Z,2.50
2023-04-30T13:08:20.794Z,3.57
2023-04-30T13:10:49.667Z,2.53
2023-04-30T13:13:20.268Z,3.90
2023-04-30T13:15:49.938Z,5.40
2023-04-30T13:18:17.823Z,2.70
2023-04-30T13:20:46.701Z,2.97
2023-04-30T13:23:15.033Z,2.77
2023-04-30T13:25:43.639Z,4.03
2023-04-30T13:28:11.564Z,2.47
2023-04-30T13:30:41.069Z,3.93
2023-04-30T13:33:10.366Z,3.10
2023-04-30T13:35:38.291Z,3.97
2023-04-30T13:38:06.939Z,6.03
2023-04-30T13:40:34.713Z,6.23
2023-04-30T13:43:02.554Z,2.97
2023-04-30T13:45:30.648Z,2.67
2023-04-30T13:47:58.596Z,3.33
2023-04-30T13:50:27.951Z,2.70
2023-04-30T13:52:55.694Z,3.80
2023-04-30T13:55:24.456Z,2.87
2023-04-30T13:57:52.290Z,3.07
2023-04-30T14:00:22.017Z,2.13
2023-04-30T14:02:50.034Z,3.30
2023-04-30T14:05:18.322Z,2.50
2023-04-30T14:07:47.704Z,3.33
2023-04-30T14:10:15.638Z,3.37
2023-04-30T14:12:43.517Z,3.03
2023-04-30T14:15:11.898Z,2.47
2023-04-30T14:17:39.917Z,2.17
2023-04-30T14:20:09.145Z,2.40
2023-04-30T14:22:38.577Z,2.53
2023-04-30T14:25:09.656Z,3.33
2023-04-30T14:27:38.011Z,3.37
2023-04-30T14:30:07.981Z,2.40
2023-04-30T14:32:36.768Z,1.93
2023-04-30T14:35:05.357Z,3.17
2023-04-30T14:37:33.430Z,2.07
2023-04-30T14:40:02.096Z,3.77
2023-04-30T14:42:31.378Z,2.67
2023-04-30T14:44:59.718Z,1.70
2023-04-30T14:47:28.165Z,1.67
2023-04-30T14:49:58.678Z,3.20
2023-04-30T14:52:26.546Z,3.73
2023-04-30T14:54:54.306Z,2.87
2023-04-30T14:57:23.504Z,2.07
2023-04-30T14:59:55.085Z,2.07
2023-04-30T15:02:23.454Z,3.03
2023-04-30T15:04:51.254Z,3.03
2023-04-30T15:07:19.952Z,3.17
2023-04-30T15:09:48.503Z,4.37
2023-04-30T15:12:16.335Z,2.30
2023-04-30T15:14:44.766Z,3.03
2023-04-30T15:17:14.033Z,3.40
2023-04-30T15:19:41.813Z,2.67
2023-04-30T15:22:09.629Z,2.67
2023-04-30T15:24:38.165Z,4.17
2023-04-30T15:27:05.971Z,2.50
2023-04-30T15:29:34.174Z,2.23
2023-04-30T15:32:02.807Z,3.60
2023-04-30T15:34:32.137Z,2.63
2023-04-30T15:36:59.929Z,2.57
2023-04-30T15:39:27.818Z,3.90
2023-04-30T15:41:55.696Z,2.83
2023-04-30T15:44:23.831Z,3.93
2023-04-30T15:46:52.582Z,2.47
2023-04-30T15:49:21.192Z,3.33
2023-04-30T15:51:51.654Z,3.43
2023-04-30T15:54:19.490Z,4.20
2023-04-30T15:56:48.409Z,2.17
2023-04-30T15:59:18.468Z,2.67
2023-04-30T16:01:47.977Z,4.53
2023-04-30T16:04:15.959Z,4.60
2023-04-30T16:06:47.195Z,6.77
2023-04-30T16:09:19.587Z,3.30
2023-04-30T16:11:48.370Z,4.83
2023-04-30T16:14:16.596Z,2.57
2023-04-30T16:16:44.646Z,3.20
2023-04-30T16:19:13.113Z,4.30
2023-04-30T16:21:41.454Z,6.17
2023-04-30T16:24:10.312Z,3.80
2023-04-30T16:26:39.467Z,3.50
2023-04-30T16:29:07.261Z,2.87
2023-04-30T16:31:35.112Z,5.33
2023-04-30T16:34:02.933Z,4.63
2023-04-30T16:36:31.172Z,4.60
2023-04-30T16:38:59.054Z,3.00
2023-04-30T16:41:26.853Z,2.80
2023-04-30T16:43:55.966Z,2.60
2023-04-30T16:46:23.801Z,2.77
2023-04-30T16:48:51.689Z,4.33
2023-04-30T16:51:19.575Z,3.60
2023-04-30T16:53:47.351Z,2.20
2023-04-30T16:56:15.150Z,2.83
2023-04-30T16:58:42.902Z,2.27
2023-04-30T17:01:12.151Z,2.90
2023-04-30T17:03:40.368Z,3.80
2023-04-30T17:06:08.489Z,3.10
2023-04-30T17:08:37.267Z,4.20
2023-04-30T17:11:06.345Z,2.70
2023-04-30T17:13:34.185Z,5.73
2023-04-30T17:16:02.403Z,4.37
2023-04-30T17:18:33.256Z,2.73
2023-04-30T17:21:01.186Z,2.93
2023-04-30T17:23:28.974Z,2.10
2023-04-30T17:25:57.220Z,5.40
2023-04-30T17:28:25.074Z,2.20
2023-04-30T17:30:52.895Z,3.93
2023-04-30T17:33:20.674Z,3.87
2023-04-30T17:35:49.989Z,6.40
2023-04-30T17:38:18.041Z,3.53
2023-04-30T17:40:45.737Z,3.20
2023-04-30T17:43:14.039Z,3.83
2023-04-30T17:45:41.842Z,3.87
2023-04-30T17:48:10.380Z,3.30
2023-04-30T17:50:38.472Z,3.70
2023-04-30T17:53:07.866Z,2.57
2023-04-30T17:55:35.678Z,4.27
2023-04-30T17:58:03.886Z,2.53
2023-04-30T18:00:31.732Z,3.10
2023-04-30T18:02:59.558Z,2.90
2023-04-30T18:05:27.573Z,1.93
2023-04-30T18:07:55.404Z,3.67
2023-04-30T18:10:24.615Z,3.07
2023-04-30T18:12:53.868Z,3.17
2023-04-30T18:15:22.121Z,3.03
2023-04-30T18:17:52.656Z,5.17
2023-04-30T18:20:21.357Z,4.93
2023-04-30T18:22:49.211Z,3.83
2023-04-30T18:25:17.565Z,3.20
2023-04-30T18:27:46.913Z,4.43
2023-04-30T18:30:14.999Z,4.00
2023-04-30T18:32:44.244Z,3.47
2023-04-30T18:35:12.604Z,3.97
2023-04-30T18:37:40.470Z,4.60
2023-04-30T18:40:09.769Z,5.30
2023-04-30T18:42:38.464Z,2.93
2023-04-30T18:45:09.314Z,4.00
2023-04-30T18:47:37.072Z,3.33
2023-04-30T18:50:06.463Z,3.30
2023-04-30T18:52:34.257Z,3.97
2023-04-30T18:55:02.138Z,4.17
2023-04-30T18:57:31.828Z,4.53
2023-04-30T18:59:59.544Z,3.97
2023-04-30T19:02:29.509Z,4.50
2023-04-30T19:04:57.782Z,3.20
2023-04-30T19:07:26.061Z,2.63
2023-04-30T19:09:54.152Z,2.43
2023-04-30T19:12:22.106Z,1.70
2023-04-30T19:14:50.189Z,4.63
2023-04-30T19:17:20.175Z,6.53
2023-04-30T19:19:50.782Z,4.47
2023-04-30T19:22:18.450Z,4.53
2023-04-30T19:24:46.444Z,4.23
2023-04-30T19:27:14.214Z,3.73
2023-04-30T19:29:41.998Z,3.97
2023-04-30T19:32:10.308Z,3.70
2023-04-30T19:34:38.190Z,5.07
2023-04-30T19:37:07.663Z,3.53
2023-04-30T19:39:36.544Z,5.27
2023-04-30T19:42:05.980Z,4.53
2023-04-30T19:44:33.864Z,5.70
2023-04-30T19:47:01.683Z,4.07
2023-04-30T19:49:29.571Z,5.17
2023-04-30T19:51:57.305Z,4.27
2023-04-30T19:54:26.437Z,3.03
2023-04-30T19:56:54.694Z,6.13
2023-04-30T19:59:22.429Z,3.07
2023-04-30T20:01:52.487Z,4.47
2023-04-30T20:04:23.389Z,3.93
2023-04-30T20:06:56.961Z,5.77
2023-04-30T20:09:26.331Z,5.07
2023-04-30T20:11:55.393Z,4.33
2023-04-30T20:14:24.057Z,4.83
2023-04-30T20:16:54.179Z,4.90
2023-04-30T20:19:22.700Z,5.87
2023-04-30T20:21:50.977Z,5.50
2023-04-30T20:24:19.663Z,5.60
2023-04-30T20:26:48.983Z,5.03
2023-04-30T20:29:18.504Z,5.23
2023-04-30T20:31:46.487Z,4.43
2023-04-30T20:34:14.449Z,6.90
2023-04-30T20:36:42.172Z,4.03
2023-04-30T20:39:10.487Z,4.10
2023-04-30T20:41:38.290Z,6.57
2023-04-30T20:44:07.394Z,6.13
2023-04-30T20:46:36.206Z,7.10
2023-04-30T20:49:05.117Z,5.77
2023-04-30T20:51:33.370Z,4.37
2023-04-30T20:54:01.361Z,5.97
2023-04-30T20:56:29.293Z,8.57
2023-04-30T20:58:57.404Z,5.23
2023-04-30T21:01:27.729Z,4.73
2023-04-30T21:03:56.313Z,5.40
2023-04-30T21:06:24.334Z,6.10
2023-04-30T21:08:51.991Z,4.97
2023-04-30T21:11:20.469Z,6.03
2023-04-30T21:13:50.754Z,7.43
2023-04-30T21:16:19.492Z,6.03
2023-04-30T21:18:49.563Z,5.50
2023-04-30T21:21:17.975Z,4.80
2023-04-30T21:23:48.009Z,6.00
2023-04-30T21:26:16.447Z,5.17
2023-04-30T21:28:44.195Z,5.00
2023-04-30T21:31:11.952Z,6.90
2023-04-30T21:33:39.802Z,7.17
2023-04-30T21:36:09.208Z,5.17
2023-04-30T21:38:38.139Z,8.87
2023-04-30T21:41:05.803Z,5.07
2023-04-30T21:43:33.724Z,8.13
2023-04-30T21:46:02.699Z,5.13
2023-04-30T21:48:30.911Z,6.27
2023-04-30T21:50:58.893Z,5.53
2023-04-30T21:53:28.557Z,7.53
2023-04-30T21:55:57.143Z,6.03
2023-04-30T21:58:24.919Z,6.43
2023-04-30T22:00:54.791Z,4.80
2023-04-30T22:03:22.625Z,7.73
2023-04-30T22:05:50.452Z,4.87
2023-04-30T22:08:18.146Z,6.13
2023-04-30T22:10:47.705Z,5.77
2023-04-30T22:13:15.478Z,7.07
2023-04-30T22:15:48.082Z,6.93
2023-04-30T22:18:16.239Z,5.23
2023-04-30T22:20:44.054Z,6.37
2023-04-30T22:23:12.237Z,4.83
2023-04-30T22:25:39.952Z,9.53
2023-04-30T22:28:10.172Z,4.33
2023-04-30T22:30:38.346Z,8.60
2023-04-30T22:33:06.356Z,7.23
2023-04-30T22:35:38.058Z,6.27
2023-04-30T22:38:06.354Z,5.23
2023-04-30T22:40:35.565Z,6.80
2023-04-30T22:43:04.946Z,8.30
2023-04-30T22:45:36.944Z,6.80
2023-04-30T22:48:05.778Z,6.60
2023-04-30T22:50:33.734Z,6.23
2023-04-30T22:53:01.565Z,7.60
2023-04-30T22:55:31.484Z,7.13
2023-04-30T22:57:59.917Z,7.17
2023-04-30T23:00:27.801Z,8.03
2023-04-30T23:02:57.142Z,4.80
2023-04-30T23:05:24.946Z,7.00
2023-04-30T23:07:52.984Z,6.13
2023-04-30T23:10:20.660Z,5.20
2023-04-30T23:12:48.380Z,5.67
2023-04-30T23:15:16.325Z,6.07
2023-04-30T23:17:44.622Z,5.87
2023-04-30T23:20:14.034Z,8.87
2023-04-30T23:22:41.793Z,4.77
2023-04-30T23:25:09.723Z,4.97
2023-04-30T23:27:37.497Z,4.17
2023-04-30T23:30:06.442Z,7.67
2023-04-30T23:32:34.480Z,7.03
2023-04-30T23:35:02.476Z,5.93
2023-04-30T23:37:31.690Z,3.83
2023-04-30T23:40:00.812Z,5.50
2023-04-30T23:42:28.515Z,5.47
2023-04-30T23:44:56.230Z,7.23
2023-04-30T23:47:24.309Z,5.60
2023-04-30T23:49:52.109Z,6.37
2023-04-30T23:52:19.804Z,7.20
2023-04-30T23:54:49.081Z,5.67
2023-04-30T23:57:19.682Z,7.47
2023-04-30T23:59:47.389Z,8.90
